WetterOnline ( https://www.wetteronline.de )

Wetter aktuell Juist

Aktuelles Wetter: Norderney (16m)

6-stündlich | Neueste Meldungen
Ortszeit Temperatur Wetter
Fr, 22.01. 13:00 5.4° C bewölkt
Fr, 22.01. 7:00 4.4° C fast wolkenlos
Fr, 22.01. 1:00 4.6° C leichter Regen
Do, 21.01. 19:00 6.5° C bewölkt
Do, 21.01. 13:00 6.7° C bewölkt
Do, 21.01. 7:00 8.3° C Regen
Do, 21.01. 1:00 9.1° C bedeckt
Mi, 20.01. 19:00 8.1° C bewölkt
Ortszeit Temperatur Wetter
Fr, 22.01. 17:30 5.1° C fast wolkenlos
Fr, 22.01. 17:20 5.1° C fast wolkenlos
Fr, 22.01. 17:10 5.1° C leicht bewölkt
Fr, 22.01. 17:00 5.3° C wolkig
Fr, 22.01. 16:50 5.3° C wolkig
Fr, 22.01. 16:40 5.3° C leicht bewölkt
Fr, 22.01. 16:30 5.3° C leicht bewölkt
Fr, 22.01. 16:00 5.6° C bewölkt
Ortszeit Relative Feuchte Sichtweite
Fr, 22.01. 13:00 80% 23 km
Fr, 22.01. 7:00 87% 30 km
Fr, 22.01. 1:00 90% 40 km
Do, 21.01. 19:00 74% 35 km
Do, 21.01. 13:00 70% 35 km
Do, 21.01. 7:00 77% 22 km
Do, 21.01. 1:00 72% 50 km
Mi, 20.01. 19:00 70% 55 km
Ortszeit Relative Feuchte Sichtweite
Fr, 22.01. 17:30 78% 19 km
Fr, 22.01. 17:20 78% -
Fr, 22.01. 17:10 78% -
Fr, 22.01. 17:00 77% 17 km
Fr, 22.01. 16:50 77% -
Fr, 22.01. 16:40 78% -
Fr, 22.01. 16:30 79% 16 km
Fr, 22.01. 16:00 74% 16 km
Ortszeit Niederschlagsmenge Niederschlagsart
Fr, 22.01. 13:00 0.0 l/m2 in 6 Std. -
Fr, 22.01. 7:00 2 l/m2 in 12 Std. Regen
Fr, 22.01. 1:00 0.1 l/m2 in 6 Std. Regen
Do, 21.01. 19:00 0.2 l/m2 in 12 Std. Regen
Do, 21.01. 13:00 0.2 l/m2 in 6 Std. Regen
Do, 21.01. 7:00 0.3 l/m2 in 12 Std. Regen
Do, 21.01. 1:00 0.1 l/m2 in 6 Std. Regen
Mi, 20.01. 19:00 0.2 l/m2 in 12 Std. Regen
Ortszeit Niederschlagsmenge Niederschlagsart
Fr, 22.01. 17:30 0.0 l/m2 in 1 Std. -
Fr, 22.01. 17:20 keine Meldung -
Fr, 22.01. 17:10 keine Meldung -
Fr, 22.01. 17:00 0.0 l/m2 in 1 Std. -
Fr, 22.01. 16:50 keine Meldung -
Fr, 22.01. 16:40 keine Meldung -
Fr, 22.01. 16:30 0.0 l/m2 in 1 Std. -
Fr, 22.01. 16:00 0.0 l/m2 in 1 Std. -
Ortszeit Stärke Spitze Richtung
km/h Bft. km/h Grad Sektor
Fr, 22.01. 13:00 29 5 50 230° SW
Fr, 22.01. 7:00 30 5 44 220° SW
Fr, 22.01. 1:00 19 3 57 170° S
Do, 21.01. 19:00 31 5 74 200° S
Do, 21.01. 13:00 33 5 81 200° S
Do, 21.01. 7:00 50 7 79 200° S
Do, 21.01. 1:00 30 5 56 180° S
Mi, 20.01. 19:00 29 5 54 180° S
Ortszeit Stärke Spitze Richtung
km/h Bft. km/h Grad Sektor
Fr, 22.01. 17:30 26 4 44 230° SW
Fr, 22.01. 17:20 26 4 - 230° SW
Fr, 22.01. 17:10 25 4 - 240° SW
Fr, 22.01. 17:00 29 5 47 240° SW
Fr, 22.01. 16:50 29 5 - 240° SW
Fr, 22.01. 16:40 28 4 - 240° SW
Fr, 22.01. 16:30 24 4 48 230° SW
Fr, 22.01. 16:00 30 5 50 240° SW
Ortszeit Untergrenze Bedeckung Gattung
total tief tief mittel hoch
Fr, 22.01. 13:00 660 m 7/8 7/8 - - -
Fr, 22.01. 7:00 1110 m 1/8 1/8 - - -
Fr, 22.01. 1:00 1200 m 8/8 8/8 - - -
Do, 21.01. 19:00 990 m 8/8 7/8 - - -
Do, 21.01. 13:00 1020 m 7/8 7/8 - - -
Do, 21.01. 7:00 660 m 8/8 8/8 - - -
Do, 21.01. 1:00 1410 m 8/8 8/8 - - -
Mi, 20.01. 19:00 2400 m 8/8 6/8 - - -
Ortszeit Bedeckungsgrad in Achtel und Wolkenuntergrenze
Fr, 22.01. 17:30 1(960m)
Fr, 22.01. 17:20 1(960m)
Fr, 22.01. 17:10 3(930m)
Fr, 22.01. 17:00 6(870m) 6(960m)
Fr, 22.01. 16:50 6(870m)
Fr, 22.01. 16:40 2(780m) 4(960m)
Fr, 22.01. 16:30 1(720m) 3(930m)
Fr, 22.01. 16:00 7(990m) 7(990m)
Ortszeit Luftdruck NN (hPa) Tendenz (hPa in 3 Std.)
Fr, 22.01. 13:00 988 + 2,2
Fr, 22.01. 7:00 984 + 1,9
Fr, 22.01. 1:00 982 - 2,7
Do, 21.01. 19:00 986 + 0,4
Do, 21.01. 13:00 986 + 0,9
Do, 21.01. 7:00 981 - 1,5
Do, 21.01. 1:00 987 - 2,7
Mi, 20.01. 19:00 991 - 1,2
Ortszeit Luftdruck NN (hPa) Tendenz (hPa in 3 Std.)
Fr, 22.01. 17:30 991 + 2,6
Fr, 22.01. 17:20 991 keine Meldung
Fr, 22.01. 17:10 991 keine Meldung
Fr, 22.01. 17:00 991 + 2,8
Fr, 22.01. 16:50 991 keine Meldung
Fr, 22.01. 16:40 991 keine Meldung
Fr, 22.01. 16:30 991 + 2,4
Fr, 22.01. 16:00 990 + 2,0
Ortszeit Schneehöhe (cm)
Fr, 22.01. 13:00 0
Fr, 22.01. 7:00 0
Fr, 22.01. 1:00 0
Do, 21.01. 19:00 0
Do, 21.01. 13:00 0
Do, 21.01. 7:00 0
Do, 21.01. 1:00 0
Mi, 20.01. 19:00 0
Ortszeit Schneehöhe (cm)
Fr, 22.01. 17:30 0
Fr, 22.01. 17:20 0
Fr, 22.01. 17:10 0
Fr, 22.01. 17:00 0
Fr, 22.01. 16:50 0
Fr, 22.01. 16:40 0
Fr, 22.01. 16:30 0
Fr, 22.01. 16:00 0
Link zu dieser Seite / Seite empfehlen

Das Wetter in ...